Time;durP1;ratioP1;P1;durP2;ratioP2;P2;SDS_P1;SDS_P2;PMS_P1;PMS_P2;Temp;Humidity;BMP_temperature;BMP_pressure;BME280_temperature;BME280_humidity;BME280_pressure;Samples;Min_cycle;Max_cycle;Signal;HPM_P1;HPM_P2
2021/05/21 00:01:09;;;;;;;4.57;4.17;;;19.80;36.20;;;;;;5014521;28;20275;-77
2021/05/21 00:03:35;;;;;;;4.40;4.00;;;19.80;36.20;;;;;;5032580;28;20863;-77
2021/05/21 00:06:01;;;;;;;4.97;4.67;;;19.80;36.20;;;;;;5032026;28;20192;-76
2021/05/21 00:08:28;;;;;;;4.03;3.63;;;19.80;36.20;;;;;;5032360;28;20179;-77
2021/05/21 00:10:54;;;;;;;4.67;4.27;;;19.80;36.10;;;;;;5032105;28;20427;-77
2021/05/21 00:13:19;;;;;;;4.63;4.43;;;19.80;36.20;;;;;;5014394;28;20188;-77
2021/05/21 00:15:45;;;;;;;3.90;3.60;;;19.80;36.10;;;;;;5031844;28;20176;-76
2021/05/21 00:18:11;;;;;;;3.80;3.60;;;19.70;36.00;;;;;;5014325;28;20200;-77
2021/05/21 00:20:36;;;;;;;4.17;3.97;;;19.80;36.10;;;;;;5032109;28;20184;-77
2021/05/21 00:23:02;;;;;;;4.00;3.80;;;19.80;36.10;;;;;;5031994;28;20227;-76
2021/05/21 00:25:27;;;;;;;4.17;3.90;;;19.80;36.10;;;;;;5013733;28;20659;-77
2021/05/21 00:27:57;;;;;;;3.83;3.63;;;19.80;36.10;;;;;;5014059;28;20267;-77
2021/05/21 00:30:23;;;;;;;3.87;3.67;;;19.70;36.00;;;;;;5013936;28;20204;-76
2021/05/21 00:32:50;;;;;;;4.37;4.07;;;19.80;36.10;;;;;;5014146;28;20426;-76
2021/05/21 00:35:17;;;;;;;3.70;3.50;;;19.80;36.20;;;;;;5030532;28;20189;-77
2021/05/21 00:37:43;;;;;;;3.80;3.57;;;19.70;36.00;;;;;;5031131;28;20457;-76
2021/05/21 00:40:12;;;;;;;4.53;4.23;;;19.80;36.00;;;;;;5013603;28;20258;-76
2021/05/21 00:42:37;;;;;;;3.80;3.50;;;19.80;36.10;;;;;;5014296;28;20418;-76
2021/05/21 00:45:03;;;;;;;3.73;3.53;;;19.80;36.10;;;;;;5031534;28;20630;-76
2021/05/21 00:47:29;;;;;;;4.30;4.00;;;19.80;36.00;;;;;;5031904;28;20654;-76
2021/05/21 00:49:55;;;;;;;4.03;3.77;;;19.80;36.00;;;;;;5031323;28;20432;-76
2021/05/21 00:52:23;;;;;;;3.77;3.57;;;19.80;36.00;;;;;;5031615;28;20256;-76
2021/05/21 00:54:51;;;;;;;3.87;3.67;;;19.70;36.00;;;;;;5013445;28;20856;-76
2021/05/21 00:57:17;;;;;;;3.70;3.50;;;19.70;35.90;;;;;;5031393;28;20508;-76
2021/05/21 00:59:42;;;;;;;3.80;3.60;;;19.80;35.90;;;;;;5031544;28;20495;-76
2021/05/21 01:02:09;;;;;;;4.13;3.90;;;19.70;35.80;;;;;;5031908;28;20470;-76
2021/05/21 01:04:36;;;;;;;3.73;3.53;;;19.70;35.80;;;;;;5032479;28;20576;-76
2021/05/21 01:07:06;;;;;;;3.50;3.30;;;19.70;35.80;;;;;;5032460;28;20419;-76
2021/05/21 01:09:38;;;;;;;3.63;3.43;;;19.70;35.80;;;;;;5033794;28;20910;-76
2021/05/21 01:12:04;;;;;;;3.80;3.60;;;19.70;35.70;;;;;;5015017;28;20554;-77
2021/05/21 01:14:32;;;;;;;4.00;3.80;;;19.70;35.80;;;;;;5031368;28;20461;-77
2021/05/21 01:16:59;;;;;;;3.93;3.73;;;19.70;35.70;;;;;;5030773;28;20478;-77
2021/05/21 01:19:25;;;;;;;3.77;3.60;;;19.70;35.70;;;;;;4996921;28;20431;-77
2021/05/21 01:21:52;;;;;;;3.93;3.63;;;19.70;35.70;;;;;;5030561;28;20462;-76
2021/05/21 01:24:18;;;;;;;3.77;3.57;;;19.70;35.70;;;;;;5013331;28;20665;-77
2021/05/21 01:26:46;;;;;;;3.87;3.67;;;19.70;35.70;;;;;;5030924;28;20415;-76
2021/05/21 01:29:12;;;;;;;4.40;4.20;;;19.70;35.70;;;;;;5012750;28;20423;-77
2021/05/21 01:31:43;;;;;;;3.93;3.70;;;19.70;35.70;;;;;;5013147;28;20482;-76
2021/05/21 01:34:09;;;;;;;4.03;3.80;;;19.70;35.70;;;;;;5012769;28;20238;-77
2021/05/21 01:36:36;;;;;;;4.07;3.87;;;19.70;35.70;;;;;;5030349;28;20818;-77
2021/05/21 01:39:12;;;;;;;3.87;3.67;;;19.70;35.70;;;;;;5012749;28;20338;-76
2021/05/21 01:41:38;;;;;;;3.43;3.33;;;19.70;35.70;;;;;;5030549;28;20431;-77
2021/05/21 01:44:06;;;;;;;3.70;3.50;;;19.70;35.70;;;;;;5028919;28;20511;-76
2021/05/21 01:46:33;;;;;;;4.40;4.10;;;19.70;35.60;;;;;;5012309;28;20926;-76
2021/05/21 01:48:58;;;;;;;3.90;3.70;;;19.60;35.50;;;;;;5029954;28;20993;-76
2021/05/21 01:51:24;;;;;;;4.10;3.90;;;19.70;35.60;;;;;;5030385;28;20502;-77
2021/05/21 01:53:50;;;;;;;4.20;3.90;;;19.60;35.50;;;;;;5012556;28;20291;-76
2021/05/21 01:56:17;;;;;;;3.80;3.60;;;19.70;35.50;;;;;;5029998;28;20875;-76
2021/05/21 01:58:44;;;;;;;3.80;3.60;;;19.60;35.50;;;;;;5012384;28;20211;-76
2021/05/21 02:01:09;;;;;;;4.17;3.87;;;19.70;35.60;;;;;;5012216;28;20458;-76
2021/05/21 02:03:36;;;;;;;4.17;3.97;;;19.70;35.60;;;;;;5030045;28;20416;-76
2021/05/21 02:06:02;;;;;;;3.70;3.60;;;19.70;35.60;;;;;;5011901;28;20555;-76
2021/05/21 02:08:28;;;;;;;3.60;3.40;;;19.70;35.50;;;;;;5012413;28;20424;-76
2021/05/21 02:10:54;;;;;;;3.40;3.30;;;19.70;35.60;;;;;;5030209;28;20610;-76
2021/05/21 02:13:20;;;;;;;3.40;3.20;;;19.60;35.50;;;;;;5012302;28;20514;-77
2021/05/21 02:15:46;;;;;;;4.13;3.90;;;19.60;35.40;;;;;;5030211;28;20447;-76
2021/05/21 02:18:12;;;;;;;3.50;3.40;;;19.60;35.40;;;;;;5012327;28;20207;-76
2021/05/21 02:20:38;;;;;;;3.97;3.77;;;19.60;35.40;;;;;;5029909;28;20428;-76
2021/05/21 02:23:05;;;;;;;4.13;3.93;;;19.60;35.40;;;;;;5030082;28;20494;-77
2021/05/21 02:25:31;;;;;;;4.10;3.80;;;19.60;35.40;;;;;;5030187;28;20798;-77
2021/05/21 02:27:57;;;;;;;4.13;3.93;;;19.60;36.10;;;;;;5029703;28;20423;-77
2021/05/21 02:30:26;;;;;;;4.13;3.87;;;19.60;35.40;;;;;;5012231;28;21016;-76
2021/05/21 02:32:55;;;;;;;4.10;3.90;;;19.60;35.50;;;;;;5011148;28;20430;-76
2021/05/21 02:35:21;;;;;;;3.87;3.67;;;19.60;35.40;;;;;;4994609;28;20439;-76
2021/05/21 02:37:47;;;;;;;4.00;3.80;;;19.60;35.30;;;;;;5012235;28;20471;-77
2021/05/21 02:40:16;;;;;;;3.77;3.57;;;19.60;35.30;;;;;;5030431;28;20455;-76
2021/05/21 02:42:42;;;;;;;3.63;3.53;;;19.60;35.30;;;;;;4995545;28;20279;-77
2021/05/21 02:45:10;;;;;;;3.27;3.17;;;19.60;35.30;;;;;;5011922;28;20498;-77
2021/05/21 02:47:36;;;;;;;3.90;3.60;;;19.60;35.30;;;;;;5012441;28;20185;-76
2021/05/21 02:50:03;;;;;;;4.10;3.80;;;19.60;35.30;;;;;;5029539;28;20921;-77
2021/05/21 02:52:28;;;;;;;3.87;3.67;;;19.60;35.30;;;;;;5029953;28;20421;-77
2021/05/21 02:54:54;;;;;;;3.97;3.80;;;19.60;35.50;;;;;;5029881;28;20526;-76
2021/05/21 02:57:23;;;;;;;3.90;3.70;;;19.60;35.30;;;;;;5011661;28;20196;-76
2021/05/21 02:59:49;;;;;;;3.80;3.60;;;19.60;35.20;;;;;;5029901;28;20313;-76
2021/05/21 03:02:14;;;;;;;3.80;3.27;;;19.60;35.30;;;;;;5033288;28;20519;-77
2021/05/21 03:04:40;;;;;;;3.83;3.63;;;19.60;35.30;;;;;;5033470;28;20173;-76
2021/05/21 03:07:05;;;;;;;3.80;3.50;;;19.60;35.20;;;;;;5033739;28;20318;-77
2021/05/21 03:09:31;;;;;;;3.43;3.23;;;19.60;35.30;;;;;;5015922;28;20275;-76
2021/05/21 03:11:56;;;;;;;3.90;3.70;;;19.60;35.30;;;;;;5033689;28;20201;-76
2021/05/21 03:14:22;;;;;;;3.40;3.30;;;19.60;35.20;;;;;;5033666;28;20746;-76
2021/05/21 03:16:47;;;;;;;3.77;3.57;;;19.60;35.20;;;;;;5033424;28;20574;-76
2021/05/21 03:19:13;;;;;;;3.47;3.37;;;19.60;35.20;;;;;;5033340;28;20184;-76
2021/05/21 03:21:39;;;;;;;4.60;3.63;;;19.60;35.20;;;;;;5015599;28;20216;-77
2021/05/21 03:24:06;;;;;;;4.07;3.80;;;19.60;35.20;;;;;;5015668;28;20196;-76
2021/05/21 03:26:32;;;;;;;4.00;3.80;;;19.60;35.20;;;;;;5031570;28;20477;-77
2021/05/21 03:28:57;;;;;;;3.87;3.60;;;19.60;35.20;;;;;;5033701;28;20423;-77
2021/05/21 03:31:23;;;;;;;3.47;3.37;;;19.60;35.20;;;;;;5033617;28;20233;-77
2021/05/21 03:33:49;;;;;;;3.70;3.50;;;19.60;35.20;;;;;;5015335;28;20169;-77
2021/05/21 03:36:14;;;;;;;3.53;3.33;;;19.60;35.30;;;;;;5015416;28;20184;-77
2021/05/21 03:38:40;;;;;;;3.50;3.40;;;19.60;35.30;;;;;;5033548;28;20239;-77
2021/05/21 03:41:06;;;;;;;4.07;3.87;;;19.60;35.30;;;;;;5033019;28;20192;-76
2021/05/21 03:43:32;;;;;;;3.60;3.40;;;19.60;35.40;;;;;;5033083;28;20180;-77
2021/05/21 03:45:58;;;;;;;3.53;3.40;;;19.60;35.40;;;;;;5032888;28;20419;-78
2021/05/21 03:48:23;;;;;;;3.40;3.20;;;19.60;35.40;;;;;;5032767;28;20181;-77
2021/05/21 03:50:49;;;;;;;4.13;3.83;;;19.60;35.40;;;;;;5033151;28;20265;-77
2021/05/21 03:53:16;;;;;;;4.13;3.83;;;19.60;35.40;;;;;;5033126;28;20172;-77
2021/05/21 03:55:42;;;;;;;5.80;3.97;;;19.60;36.10;;;;;;5032361;28;20192;-76
2021/05/21 03:58:07;;;;;;;10.05;4.40;;;19.60;36.10;;;;;;5014416;28;20594;-77
2021/05/21 04:00:33;;;;;;;4.43;3.80;;;19.60;35.70;;;;;;5032951;28;20192;-77
2021/05/21 04:02:59;;;;;;;3.90;3.60;;;19.60;35.70;;;;;;5014732;28;20173;-76
2021/05/21 04:05:25;;;;;;;4.23;3.87;;;19.60;36.30;;;;;;5014694;28;20744;-77
2021/05/21 04:07:51;;;;;;;6.40;4.40;;;19.60;35.60;;;;;;5014962;28;20938;-77
2021/05/21 04:10:18;;;;;;;4.20;4.00;;;19.60;35.50;;;;;;5014171;28;20446;-77
2021/05/21 04:12:44;;;;;;;3.73;3.53;;;19.60;35.40;;;;;;5013211;28;20183;-77
2021/05/21 04:15:11;;;;;;;6.43;4.00;;;19.50;35.50;;;;;;5014626;28;20785;-77
2021/05/21 04:17:36;;;;;;;3.83;3.30;;;19.50;35.40;;;;;;5032556;28;20466;-77
2021/05/21 04:20:03;;;;;;;5.03;3.47;;;19.50;35.30;;;;;;5032608;28;20408;-76
2021/05/21 04:22:29;;;;;;;4.47;3.67;;;19.50;35.10;;;;;;5032194;28;20598;-77
2021/05/21 04:24:54;;;;;;;3.90;3.50;;;19.50;35.30;;;;;;5031555;28;20494;-76
2021/05/21 04:27:20;;;;;;;5.20;4.10;;;19.50;35.20;;;;;;5031987;28;20180;-76
2021/05/21 04:29:46;;;;;;;3.70;3.50;;;19.50;35.10;;;;;;5032537;28;20260;-76
2021/05/21 04:32:11;;;;;;;3.20;3.10;;;19.50;35.10;;;;;;5032664;28;20199;-76
2021/05/21 04:34:37;;;;;;;3.20;3.10;;;19.50;34.90;;;;;;5014981;28;20559;-76
2021/05/21 04:37:03;;;;;;;4.30;3.90;;;19.50;34.70;;;;;;5033270;28;20200;-76
2021/05/21 04:39:30;;;;;;;4.40;4.00;;;19.40;34.20;;;;;;5016521;28;20184;-76
2021/05/21 04:41:56;;;;;;;3.80;3.40;;;19.50;34.00;;;;;;5017397;28;20805;-76
2021/05/21 04:44:21;;;;;;;3.73;3.40;;;19.50;33.70;;;;;;5013988;28;20424;-77
2021/05/21 04:46:47;;;;;;;3.70;3.50;;;19.50;33.80;;;;;;5031978;28;20184;-76
2021/05/21 04:49:31;;;;;;;5.53;3.50;;;19.50;33.40;;;;;;5032149;28;20181;-76
2021/05/21 04:52:07;;;;;;;4.47;4.00;;;19.60;33.30;;;;;;5031861;28;20189;-75
2021/05/21 04:54:35;;;;;;;4.03;3.63;;;19.60;33.30;;;;;;5013910;28;20518;-76
2021/05/21 04:57:01;;;;;;;3.33;3.13;;;19.60;32.80;;;;;;5031589;28;20937;-76
2021/05/21 04:59:27;;;;;;;3.40;3.10;;;19.60;33.30;;;;;;5013986;28;20404;-76
2021/05/21 05:01:53;;;;;;;3.30;3.10;;;19.60;33.10;;;;;;5013688;28;20957;-76
2021/05/21 05:04:18;;;;;;;3.17;3.03;;;19.50;33.20;;;;;;5031232;28;20231;-76
2021/05/21 05:06:45;;;;;;;3.43;3.30;;;19.60;33.40;;;;;;5031406;28;20850;-76
2021/05/21 05:09:12;;;;;;;3.73;3.43;;;19.60;33.50;;;;;;5031262;28;20494;-76
2021/05/21 05:11:42;;;;;;;3.50;3.30;;;19.60;33.50;;;;;;5031267;28;20439;-76
2021/05/21 05:14:11;;;;;;;3.17;3.07;;;19.50;33.40;;;;;;5030883;28;20904;-76
2021/05/21 05:16:38;;;;;;;3.33;3.13;;;19.60;34.20;;;;;;5012131;28;20500;-76
2021/05/21 05:19:06;;;;;;;3.33;3.13;;;19.60;33.70;;;;;;5031015;28;20407;-76
2021/05/21 05:21:34;;;;;;;5.23;3.33;;;19.60;33.70;;;;;;5030860;28;20547;-76
2021/05/21 05:24:03;;;;;;;3.37;3.17;;;19.50;33.50;;;;;;5012405;28;20450;-76
2021/05/21 05:26:30;;;;;;;4.07;3.50;;;19.50;33.50;;;;;;5030602;28;20421;-76
2021/05/21 05:28:59;;;;;;;3.57;3.37;;;19.50;33.40;;;;;;5012803;28;20829;-76
2021/05/21 05:31:24;;;;;;;3.20;3.00;;;19.50;33.50;;;;;;5030824;28;20423;-76
2021/05/21 05:33:56;;;;;;;5.00;4.10;;;19.50;33.60;;;;;;5030545;28;20553;-76
2021/05/21 05:36:21;;;;;;;4.33;4.00;;;19.50;33.60;;;;;;5031793;28;20416;-77
2021/05/21 05:38:48;;;;;;;6.97;3.70;;;19.50;34.10;;;;;;5013253;28;20419;-78
2021/05/21 05:41:13;;;;;;;4.33;3.60;;;19.50;34.00;;;;;;5029742;28;20668;-76
2021/05/21 05:43:39;;;;;;;4.33;3.30;;;19.50;34.20;;;;;;5029909;28;20415;-76
2021/05/21 05:49:27;;;;;;;10.47;5.37;;;19.40;34.10;;;;;;5032006;28;20195;-78
2021/05/21 05:51:54;;;;;;;16.47;6.20;;;19.50;34.50;;;;;;4997446;28;20830;-78
2021/05/21 05:54:20;;;;;;;12.10;5.90;;;19.50;34.50;;;;;;5012175;28;20801;-77
2021/05/21 05:56:45;;;;;;;16.33;7.37;;;19.60;34.70;;;;;;5029325;28;20462;-76
2021/05/21 05:59:11;;;;;;;18.33;5.43;;;19.60;35.30;;;;;;5029773;28;20705;-76
2021/05/21 06:01:36;;;;;;;13.77;6.37;;;19.50;34.20;;;;;;5029594;28;20681;-75
2021/05/21 06:04:02;;;;;;;9.57;5.60;;;19.50;33.80;;;;;;5029836;28;20207;-76
2021/05/21 06:06:29;;;;;;;5.53;4.87;;;19.50;33.20;;;;;;5030154;28;20200;-76
2021/05/21 06:08:55;;;;;;;4.77;4.20;;;19.40;32.70;;;;;;5012288;28;20215;-75
2021/05/21 06:11:21;;;;;;;6.07;4.43;;;19.40;31.60;;;;;;5030039;28;20813;-76
2021/05/21 06:13:50;;;;;;;4.87;3.30;;;19.40;31.60;;;;;;5030551;28;20461;-78
2021/05/21 06:16:15;;;;;;;5.27;3.90;;;19.40;31.70;;;;;;5013054;28;20172;-76
2021/05/21 06:18:46;;;;;;;5.73;3.70;;;19.40;32.10;;;;;;5030313;28;20490;-76
2021/05/21 06:21:12;;;;;;;3.53;3.33;;;19.40;32.00;;;;;;5012344;28;20188;-75
2021/05/21 06:23:38;;;;;;;3.30;3.00;;;19.50;31.70;;;;;;5029876;28;20808;-75
2021/05/21 06:28:45;;;;;;;3.47;3.20;;;19.50;30.80;;;;;;5029976;28;20534;-77
2021/05/21 06:31:11;;;;;;;3.30;3.10;;;19.50;31.00;;;;;;5011918;28;20434;-75
2021/05/21 06:33:37;;;;;;;6.00;3.47;;;19.50;30.20;;;;;;5029976;28;20411;-75
2021/05/21 06:36:03;;;;;;;3.50;3.23;;;19.50;30.60;;;;;;5033451;28;20173;-75
2021/05/21 06:38:29;;;;;;;3.20;3.00;;;19.60;30.60;;;;;;5033628;28;20455;-75
2021/05/21 06:40:55;;;;;;;3.20;3.00;;;19.60;30.80;;;;;;5033908;28;20184;-75
2021/05/21 06:43:21;;;;;;;8.17;3.17;;;19.60;30.80;;;;;;5016199;28;20168;-76
2021/05/21 06:45:48;;;;;;;3.10;2.80;;;19.60;31.00;;;;;;5033731;28;20422;-76
2021/05/21 06:48:14;;;;;;;4.00;3.00;;;19.60;30.90;;;;;;5034142;28;20932;-78
2021/05/21 06:50:42;;;;;;;3.30;3.10;;;19.60;31.00;;;;;;5016509;28;20560;-76
2021/05/21 06:53:07;;;;;;;2.77;2.60;;;19.60;31.10;;;;;;5033723;28;20484;-76
2021/05/21 06:55:33;;;;;;;4.53;3.33;;;19.70;31.20;;;;;;5033675;28;20435;-77
2021/05/21 06:57:59;;;;;;;9.70;3.43;;;19.70;31.20;;;;;;5033596;28;20295;-76
2021/05/21 07:00:24;;;;;;;7.07;3.20;;;19.60;31.10;;;;;;5033212;28;20267;-75
2021/05/21 07:02:50;;;;;;;3.80;3.50;;;19.60;31.10;;;;;;5033461;28;20171;-75
2021/05/21 07:05:16;;;;;;;5.30;3.10;;;19.60;31.10;;;;;;5015461;28;20187;-76
2021/05/21 07:07:42;;;;;;;5.77;3.67;;;19.60;31.20;;;;;;5015804;28;20184;-76
2021/05/21 07:10:09;;;;;;;7.93;4.07;;;19.50;31.30;;;;;;5040668;28;20467;-76
2021/05/21 07:12:35;;;;;;;4.80;3.13;;;19.50;31.40;;;;;;5034921;28;20786;-76
2021/05/21 07:15:01;;;;;;;3.50;3.20;;;19.50;31.70;;;;;;5032032;28;20426;-76
2021/05/21 07:17:27;;;;;;;5.10;3.23;;;19.50;31.90;;;;;;5012410;28;20192;-75
2021/05/21 07:19:53;;;;;;;5.20;3.23;;;19.50;31.80;;;;;;5032702;28;20418;-75
2021/05/21 07:22:19;;;;;;;4.30;3.67;;;19.50;31.80;;;;;;5032569;28;20173;-75
2021/05/21 07:24:44;;;;;;;3.80;3.00;;;19.50;31.80;;;;;;5032017;28;20411;-76
2021/05/21 07:27:10;;;;;;;3.57;3.27;;;19.40;31.80;;;;;;5032898;28;20188;-76
2021/05/21 07:29:36;;;;;;;3.60;3.30;;;19.40;31.90;;;;;;5032905;28;20180;-76
2021/05/21 07:32:01;;;;;;;4.00;2.93;;;19.50;32.00;;;;;;5033291;28;20725;-77
2021/05/21 07:34:27;;;;;;;4.50;3.40;;;19.40;32.20;;;;;;5033571;28;20207;-77
2021/05/21 07:36:52;;;;;;;3.03;2.93;;;19.40;32.20;;;;;;5015644;28;20204;-77
2021/05/21 07:39:18;;;;;;;3.93;3.63;;;19.40;32.20;;;;;;5032708;28;20239;-76
2021/05/21 07:41:44;;;;;;;3.13;2.87;;;19.40;32.30;;;;;;5032790;28;20204;-77
2021/05/21 07:44:11;;;;;;;3.17;3.00;;;19.40;32.20;;;;;;5031848;28;20169;-77
2021/05/21 07:46:37;;;;;;;3.50;3.27;;;19.40;32.30;;;;;;5012632;28;20212;-76
2021/05/21 07:49:03;;;;;;;4.07;3.07;;;19.40;32.30;;;;;;5033303;28;20447;-77
2021/05/21 07:51:31;;;;;;;3.50;3.30;;;19.40;32.30;;;;;;5015555;28;20440;-76
2021/05/21 07:53:57;;;;;;;3.13;2.93;;;19.30;32.20;;;;;;5033259;28;20792;-76
2021/05/21 07:56:22;;;;;;;4.30;3.20;;;19.40;32.40;;;;;;5033517;28;20465;-76
2021/05/21 07:58:48;;;;;;;3.30;2.70;;;19.30;32.30;;;;;;5033620;28;20207;-77
2021/05/21 08:01:14;;;;;;;3.93;2.80;;;19.40;32.40;;;;;;5032682;28;20200;-76
2021/05/21 08:03:40;;;;;;;2.60;2.50;;;19.40;32.50;;;;;;5013925;28;20276;-77
2021/05/21 08:06:05;;;;;;;3.70;3.07;;;19.30;32.30;;;;;;5031748;28;20415;-76
2021/05/21 08:08:32;;;;;;;3.40;3.10;;;19.30;32.40;;;;;;5031960;28;20177;-75
2021/05/21 08:11:02;;;;;;;3.23;2.93;;;19.40;32.50;;;;;;5015071;28;20204;-76
2021/05/21 08:13:29;;;;;;;2.87;2.77;;;19.30;32.50;;;;;;5017403;28;20423;-76
2021/05/21 08:15:56;;;;;;;2.83;2.70;;;19.30;32.60;;;;;;5017054;28;20902;-77
2021/05/21 08:18:22;;;;;;;2.93;2.67;;;19.30;32.60;;;;;;5033275;28;20584;-76
2021/05/21 08:20:54;;;;;;;2.83;2.63;;;19.30;32.60;;;;;;5016379;28;20436;-78
2021/05/21 08:23:20;;;;;;;2.77;2.57;;;19.30;32.80;;;;;;5033751;28;20417;-77
2021/05/21 08:25:47;;;;;;;2.80;2.60;;;19.30;33.40;;;;;;5014613;28;20530;-78
2021/05/21 08:28:14;;;;;;;3.47;2.83;;;19.30;32.70;;;;;;5014066;28;20621;-77
2021/05/21 08:30:40;;;;;;;3.03;2.53;;;19.30;32.80;;;;;;5031640;28;20857;-76
2021/05/21 08:33:08;;;;;;;3.20;2.40;;;19.30;32.70;;;;;;5014743;28;20458;-76
2021/05/21 08:35:43;;;;;;;2.83;2.63;;;19.30;32.70;;;;;;5013923;28;20845;-76
2021/05/21 08:38:09;;;;;;;3.40;3.10;;;19.30;32.60;;;;;;5013807;28;20474;-77
2021/05/21 08:40:38;;;;;;;3.17;2.97;;;19.30;32.60;;;;;;5031842;28;20481;-76
2021/05/21 08:43:09;;;;;;;3.40;3.20;;;19.30;32.60;;;;;;5012435;28;20177;-76
2021/05/21 08:45:37;;;;;;;2.90;2.70;;;19.30;32.70;;;;;;5012012;28;20462;-76
2021/05/21 08:48:03;;;;;;;2.50;2.40;;;19.30;32.70;;;;;;5013100;28;20411;-76
2021/05/21 08:50:30;;;;;;;3.00;2.80;;;19.30;32.60;;;;;;5024990;28;21011;-76
2021/05/21 08:52:56;;;;;;;3.10;2.90;;;19.30;32.70;;;;;;5013828;28;20478;-76
2021/05/21 08:55:22;;;;;;;2.80;2.60;;;19.30;32.70;;;;;;5031197;28;20522;-76
2021/05/21 08:57:48;;;;;;;3.10;2.80;;;19.30;32.70;;;;;;5031168;28;20494;-76
2021/05/21 09:00:14;;;;;;;2.87;2.67;;;19.30;32.60;;;;;;5013355;28;20523;-76
2021/05/21 09:02:40;;;;;;;2.87;2.77;;;19.30;32.70;;;;;;5006886;28;20268;-76
2021/05/21 09:05:09;;;;;;;2.53;2.43;;;19.30;32.80;;;;;;5011174;28;20500;-76
2021/05/21 09:07:37;;;;;;;5.93;2.90;;;19.30;32.80;;;;;;4993862;28;20424;-76
2021/05/21 09:10:12;;;;;;;2.90;2.30;;;19.30;33.20;;;;;;5016915;28;20474;-76
2021/05/21 09:12:43;;;;;;;4.53;2.70;;;19.30;32.90;;;;;;5030728;28;20403;-76
2021/05/21 09:15:22;;;;;;;5.03;3.07;;;19.30;33.00;;;;;;5013698;28;20425;-77
2021/05/21 09:17:59;;;;;;;9.60;2.90;;;19.40;33.70;;;;;;5028641;28;20471;-77
2021/05/21 09:20:32;;;;;;;3.27;2.97;;;19.50;34.00;;;;;;5013649;28;20842;-77
2021/05/21 09:23:18;;;;;;;4.10;2.97;;;19.50;34.00;;;;;;5030647;28;20407;-77
2021/05/21 09:25:55;;;;;;;4.50;2.90;;;19.60;34.00;;;;;;4994722;28;20429;-77
2021/05/21 09:28:43;;;;;;;5.43;2.90;;;19.60;34.10;;;;;;5010336;28;20451;-78
2021/05/21 09:31:12;;;;;;;4.53;3.40;;;19.70;34.30;;;;;;5011344;28;20436;-78
2021/05/21 09:33:44;;;;;;;4.10;3.13;;;19.70;33.90;;;;;;4993468;28;20428;-76
2021/05/21 09:36:10;;;;;;;4.17;3.07;;;19.70;33.60;;;;;;4993173;28;20499;-76
2021/05/21 09:38:50;;;;;;;3.10;2.90;;;19.70;33.60;;;;;;5010940;28;20941;-76
2021/05/21 09:41:16;;;;;;;2.77;2.57;;;19.70;33.50;;;;;;5011185;28;20523;-77
2021/05/21 09:43:41;;;;;;;5.43;3.00;;;19.70;33.60;;;;;;5010566;28;20883;-75
2021/05/21 09:46:12;;;;;;;4.30;2.93;;;19.80;33.90;;;;;;5010864;28;20419;-77
2021/05/21 09:48:40;;;;;;;3.10;2.53;;;19.80;33.90;;;;;;5011068;28;20586;-76
2021/05/21 09:51:05;;;;;;;2.73;2.40;;;19.80;33.60;;;;;;4993293;28;20432;-76
2021/05/21 09:53:33;;;;;;;4.90;2.83;;;19.80;33.70;;;;;;5010416;28;20410;-76
2021/05/21 09:56:03;;;;;;;3.10;2.50;;;19.80;33.60;;;;;;5011480;28;20181;-76
2021/05/21 09:58:40;;;;;;;2.73;2.53;;;19.80;33.80;;;;;;5010603;28;20466;-75
2021/05/21 10:01:22;;;;;;;3.03;2.77;;;19.80;33.80;;;;;;5011001;28;20420;-76
2021/05/21 10:03:54;;;;;;;4.03;2.50;;;19.90;34.70;;;;;;5010484;28;20419;-77
2021/05/21 10:06:21;;;;;;;3.30;2.70;;;19.80;33.80;;;;;;5010169;28;20472;-77
2021/05/21 10:08:48;;;;;;;3.30;2.40;;;19.90;33.90;;;;;;5010128;28;20802;-77
2021/05/21 10:11:16;;;;;;;2.70;2.50;;;19.90;33.90;;;;;;5010126;28;20443;-76
2021/05/21 10:13:44;;;;;;;6.93;2.77;;;19.90;33.70;;;;;;4992505;28;21099;-76
2021/05/21 10:16:21;;;;;;;4.03;2.47;;;19.90;33.70;;;;;;5010105;28;20985;-76
2021/05/21 10:18:51;;;;;;;3.70;2.87;;;19.90;33.60;;;;;;5010094;28;20812;-76
2021/05/21 10:21:18;;;;;;;2.90;2.70;;;19.90;33.60;;;;;;5009821;28;20459;-76
2021/05/21 10:23:59;;;;;;;3.50;2.40;;;19.90;33.70;;;;;;5010620;28;20559;-76
2021/05/21 10:26:33;;;;;;;2.63;2.53;;;19.90;33.60;;;;;;5010180;28;20413;-76
2021/05/21 10:29:02;;;;;;;5.80;2.80;;;19.90;33.50;;;;;;4992249;28;20428;-76
2021/05/21 10:31:29;;;;;;;2.70;2.50;;;19.90;33.60;;;;;;5010240;28;20432;-77
2021/05/21 10:34:14;;;;;;;4.13;2.63;;;19.90;33.70;;;;;;5009469;28;20420;-77
2021/05/21 10:36:40;;;;;;;3.30;3.00;;;20.00;34.10;;;;;;5010079;28;20947;-74
2021/05/21 10:39:06;;;;;;;4.13;2.30;;;20.00;33.80;;;;;;5009095;28;20417;-75
2021/05/21 10:41:48;;;;;;;2.90;2.70;;;20.00;34.00;;;;;;5010197;28;20515;-77
2021/05/21 10:44:19;;;;;;;2.70;2.50;;;20.00;33.70;;;;;;5009949;28;20408;-77
2021/05/21 10:46:46;;;;;;;2.30;2.10;;;20.00;33.70;;;;;;5010043;28;20409;-77
2021/05/21 10:49:26;;;;;;;1.97;1.87;;;20.00;33.60;;;;;;5010137;28;20989;-74
2021/05/21 10:52:00;;;;;;;2.43;2.30;;;20.00;33.60;;;;;;5010010;28;20434;-75
2021/05/21 10:54:40;;;;;;;2.47;2.27;;;20.00;33.80;;;;;;5010104;28;20436;-75
2021/05/21 10:57:13;;;;;;;2.57;2.37;;;20.00;34.80;;;;;;5009774;28;20498;-75
2021/05/21 10:59:48;;;;;;;3.93;2.80;;;20.00;33.80;;;;;;4992423;28;20442;-76
2021/05/21 11:02:14;;;;;;;2.10;2.00;;;20.00;33.80;;;;;;4992080;28;20428;-75
2021/05/21 11:04:40;;;;;;;2.60;2.40;;;20.00;34.00;;;;;;5009402;28;20922;-75
2021/05/21 11:07:08;;;;;;;2.77;2.57;;;20.00;33.90;;;;;;5009214;28;20174;-76
2021/05/21 11:09:45;;;;;;;2.90;2.60;;;20.00;34.00;;;;;;4992660;28;20219;-75
2021/05/21 11:12:15;;;;;;;2.73;2.53;;;20.10;34.00;;;;;;5009525;28;20428;-75
2021/05/21 11:14:45;;;;;;;2.90;2.57;;;20.10;34.00;;;;;;5009856;28;20408;-75
2021/05/21 11:17:26;;;;;;;2.67;2.50;;;20.10;34.10;;;;;;5009844;28;20476;-76
2021/05/21 11:20:00;;;;;;;4.17;2.60;;;20.10;33.90;;;;;;5009608;28;20943;-76
2021/05/21 11:22:26;;;;;;;3.27;3.07;;;20.10;34.00;;;;;;4994444;28;20416;-75
2021/05/21 11:24:56;;;;;;;3.23;3.00;;;20.10;33.90;;;;;;5013529;28;20921;-76
2021/05/21 11:27:22;;;;;;;2.90;2.70;;;20.10;33.70;;;;;;5013126;28;20549;-76
2021/05/21 11:29:53;;;;;;;3.00;2.90;;;20.10;33.70;;;;;;5013661;28;20412;-76
2021/05/21 11:32:21;;;;;;;2.80;2.70;;;20.10;33.80;;;;;;5013172;28;20547;-76
2021/05/21 11:34:47;;;;;;;2.93;2.73;;;20.10;33.80;;;;;;5013220;28;20447;-75
2021/05/21 11:37:20;;;;;;;3.13;2.93;;;20.10;33.70;;;;;;5012929;28;20455;-76
2021/05/21 11:39:45;;;;;;;3.50;3.20;;;20.10;33.70;;;;;;4995491;28;20420;-75
2021/05/21 11:42:11;;;;;;;3.10;2.90;;;20.10;33.90;;;;;;5012864;28;20431;-75
2021/05/21 11:44:37;;;;;;;3.50;3.30;;;20.10;33.90;;;;;;4995647;28;20181;-75
2021/05/21 11:47:06;;;;;;;3.10;2.90;;;20.10;33.90;;;;;;5012887;28;20746;-75
2021/05/21 11:49:33;;;;;;;4.70;2.80;;;20.10;33.80;;;;;;5013769;28;20178;-74
2021/05/21 11:52:06;;;;;;;2.90;2.80;;;20.10;34.10;;;;;;4996736;28;20977;-74
2021/05/21 11:54:32;;;;;;;3.00;2.80;;;20.10;34.10;;;;;;5013892;28;20835;-75
2021/05/21 11:56:59;;;;;;;2.80;2.70;;;20.10;33.80;;;;;;5013057;28;20444;-75
2021/05/21 11:59:26;;;;;;;3.10;2.80;;;20.10;34.60;;;;;;5013265;28;20415;-75
2021/05/21 12:01:54;;;;;;;3.00;2.80;;;20.10;33.80;;;;;;5013031;28;20482;-76
2021/05/21 12:04:22;;;;;;;5.50;3.10;;;20.10;34.10;;;;;;4995042;28;20416;-75
2021/05/21 12:06:52;;;;;;;3.40;3.10;;;20.10;33.80;;;;;;5012863;28;20412;-75
2021/05/21 12:09:20;;;;;;;3.50;3.30;;;20.10;33.80;;;;;;4995111;28;20730;-75
2021/05/21 12:11:50;;;;;;;3.40;3.20;;;20.20;34.20;;;;;;5012288;28;20934;-75
2021/05/21 12:14:18;;;;;;;3.13;2.90;;;20.10;34.00;;;;;;4989150;28;20437;-75
2021/05/21 12:16:44;;;;;;;3.97;3.10;;;20.20;34.10;;;;;;4992917;28;20416;-75
2021/05/21 12:19:11;;;;;;;3.50;3.30;;;20.20;34.00;;;;;;4974936;28;20774;-75
2021/05/21 12:21:41;;;;;;;4.57;3.00;;;20.20;33.90;;;;;;4992895;28;20903;-75
2021/05/21 12:24:08;;;;;;;3.27;3.07;;;20.20;33.90;;;;;;4974937;28;20783;-75
2021/05/21 12:26:39;;;;;;;3.00;2.60;;;20.20;33.90;;;;;;4974707;28;20830;-75
2021/05/21 12:29:07;;;;;;;3.63;3.23;;;20.20;33.90;;;;;;4975085;28;20428;-76
2021/05/21 12:31:37;;;;;;;3.10;2.90;;;20.10;33.80;;;;;;4992871;28;20439;-76
2021/05/21 12:34:03;;;;;;;3.57;3.17;;;20.20;34.00;;;;;;4992037;28;20432;-75
2021/05/21 12:36:30;;;;;;;3.57;3.33;;;20.20;34.10;;;;;;4992525;28;20904;-76
2021/05/21 12:39:00;;;;;;;2.90;2.80;;;20.20;34.20;;;;;;4979023;28;20469;-75
2021/05/21 12:41:40;;;;;;;3.10;2.90;;;20.10;34.20;;;;;;5011212;28;20860;-76
2021/05/21 12:44:16;;;;;;;3.77;3.03;;;20.10;34.10;;;;;;5011968;28;20420;-75
2021/05/21 12:46:45;;;;;;;2.80;2.70;;;20.10;34.00;;;;;;4994544;28;20416;-75
2021/05/21 12:49:11;;;;;;;3.37;3.13;;;20.20;34.00;;;;;;4994209;28;20431;-75
2021/05/21 12:51:37;;;;;;;3.10;2.90;;;20.10;33.90;;;;;;4994404;28;20495;-75
2021/05/21 12:54:21;;;;;;;2.90;2.80;;;20.20;34.10;;;;;;5011765;28;20452;-76